createdAt,value
2016-12-26T00:00:47.361Z,1015.02
2016-12-26T00:01:47.344Z,1014.99
2016-12-26T00:02:47.328Z,1014.94
2016-12-26T00:03:47.312Z,1014.91
2016-12-26T00:04:47.297Z,1014.98
2016-12-26T00:05:47.281Z,1014.99
2016-12-26T00:06:47.270Z,1014.94
2016-12-26T00:07:47.299Z,1014.88
2016-12-26T00:08:47.233Z,1014.87
2016-12-26T00:09:47.218Z,1014.9
2016-12-26T00:10:47.202Z,1014.92
2016-12-26T00:11:47.188Z,1014.94
2016-12-26T00:12:47.170Z,1014.89
2016-12-26T00:13:47.204Z,1014.87
2016-12-26T00:14:47.138Z,1014.89
2016-12-26T00:15:47.123Z,1014.85
2016-12-26T00:16:47.108Z,1014.85
2016-12-26T00:17:47.091Z,1014.79
2016-12-26T00:18:47.075Z,1014.88
2016-12-26T00:19:47.061Z,1014.81
2016-12-26T00:20:47.045Z,1014.91
2016-12-26T00:21:47.028Z,1014.92
2016-12-26T00:22:47.013Z,1014.84
2016-12-26T00:23:46.998Z,1014.87
2016-12-26T00:24:46.982Z,1014.84
2016-12-26T00:25:46.969Z,1014.81
2016-12-26T00:26:46.950Z,1014.77
2016-12-26T00:27:46.936Z,1014.83
2016-12-26T00:28:46.920Z,1014.86
2016-12-26T00:29:46.904Z,1014.8
2016-12-26T00:30:46.888Z,1014.85
2016-12-26T00:31:46.872Z,1014.84
2016-12-26T00:32:46.857Z,1014.82
2016-12-26T00:33:46.847Z,1014.82
2016-12-26T00:34:47.029Z,1014.81
2016-12-26T00:35:46.809Z,1014.81
2016-12-26T00:36:46.796Z,1014.88
2016-12-26T00:37:46.783Z,1014.76
2016-12-26T00:38:46.764Z,1014.86
2016-12-26T00:39:46.753Z,1014.74
2016-12-26T00:40:46.731Z,1014.79
2016-12-26T00:41:46.715Z,1014.81
2016-12-26T00:42:46.702Z,1014.81
2016-12-26T00:43:46.684Z,1014.86
2016-12-26T00:44:46.668Z,1014.92
2016-12-26T00:45:46.652Z,1014.85
2016-12-26T00:46:46.635Z,1014.86
2016-12-26T00:47:46.621Z,1014.84
2016-12-26T00:48:46.605Z,1014.87
2016-12-26T00:49:46.590Z,1014.77
2016-12-26T00:50:46.573Z,1014.79
2016-12-26T00:51:46.559Z,1014.83
2016-12-26T00:52:46.545Z,1014.85
2016-12-26T00:53:46.526Z,1014.85
2016-12-26T00:54:46.510Z,1014.72
2016-12-26T00:55:46.499Z,1014.71
2016-12-26T00:56:46.480Z,1014.66
2016-12-26T00:57:46.463Z,1014.65
2016-12-26T00:58:46.449Z,1014.62
2016-12-26T00:59:46.434Z,1014.73
2016-12-26T01:00:46.417Z,1014.67
2016-12-26T01:01:46.401Z,1014.71
2016-12-26T01:02:46.386Z,1014.64
2016-12-26T01:03:46.370Z,1014.67
2016-12-26T01:04:46.407Z,1014.64
2016-12-26T01:05:46.340Z,1014.61
2016-12-26T01:06:46.324Z,1014.64
2016-12-26T01:07:46.309Z,1014.65
2016-12-26T01:08:46.290Z,1014.63
2016-12-26T01:09:46.276Z,1014.61
2016-12-26T01:10:46.261Z,1014.59
2016-12-26T01:11:46.245Z,1014.58
2016-12-26T01:12:46.228Z,1014.66
2016-12-26T01:13:46.213Z,1014.53
2016-12-26T01:14:46.199Z,1014.63
2016-12-26T01:15:46.181Z,1014.45
2016-12-26T01:16:46.168Z,1014.65
2016-12-26T01:17:46.158Z,1014.41
2016-12-26T01:18:46.134Z,1014.41
2016-12-26T01:19:46.120Z,1014.38
2016-12-26T01:20:46.102Z,1014.43
2016-12-26T01:21:46.088Z,1014.51
2016-12-26T01:22:46.073Z,1014.43
2016-12-26T01:23:46.057Z,1014.46
2016-12-26T01:24:46.040Z,1014.51
2016-12-26T01:25:46.025Z,1014.59
2016-12-26T01:26:46.009Z,1014.49
2016-12-26T01:27:45.992Z,1014.53
2016-12-26T01:28:45.980Z,1014.6
2016-12-26T01:29:45.962Z,1014.41
2016-12-26T01:30:45.945Z,1014.52
2016-12-26T01:31:45.930Z,1014.51
2016-12-26T01:32:45.915Z,1014.57
2016-12-26T01:33:45.899Z,1014.57
2016-12-26T01:34:45.882Z,1014.51
2016-12-26T01:35:45.867Z,1014.47
2016-12-26T01:36:45.851Z,1014.51
2016-12-26T01:37:45.835Z,1014.59
2016-12-26T01:38:45.821Z,1014.49
2016-12-26T01:39:45.804Z,1014.51
2016-12-26T01:40:45.789Z,1014.43
2016-12-26T01:41:45.773Z,1014.47
2016-12-26T01:42:45.759Z,1014.44
2016-12-26T01:43:45.743Z,1014.35
2016-12-26T01:44:45.726Z,1014.4
2016-12-26T01:45:45.709Z,1014.34
2016-12-26T01:46:45.694Z,1014.34
2016-12-26T01:47:45.680Z,1014.42
2016-12-26T01:48:45.663Z,1014.3
2016-12-26T01:49:45.648Z,1014.32
2016-12-26T01:50:45.632Z,1014.21
2016-12-26T01:51:45.616Z,1014.24
2016-12-26T01:52:45.601Z,1014.17
2016-12-26T01:53:45.585Z,1014.23
2016-12-26T01:54:45.572Z,1014.29
2016-12-26T01:55:45.553Z,1014.23
2016-12-26T01:56:45.541Z,1014.31
2016-12-26T01:57:45.524Z,1014.17
2016-12-26T01:58:45.507Z,1014.22
2016-12-26T01:59:45.490Z,1014.18
2016-12-26T02:00:45.479Z,1014.22
2016-12-26T02:01:45.460Z,1014.23
2016-12-26T02:02:45.446Z,1014.21
2016-12-26T02:03:45.428Z,1014.25
2016-12-26T02:04:45.413Z,1014.25
2016-12-26T02:05:45.397Z,1014.36
2016-12-26T02:06:45.380Z,1014.45
2016-12-26T02:07:45.367Z,1014.35
2016-12-26T02:08:45.350Z,1014.3
2016-12-26T02:09:45.334Z,1014.4
2016-12-26T02:10:45.318Z,1014.27
2016-12-26T02:11:45.302Z,1014.33
2016-12-26T02:12:45.289Z,1014.27
2016-12-26T02:13:45.272Z,1014.27
2016-12-26T02:14:45.256Z,1014.34
2016-12-26T02:15:45.240Z,1014.2
2016-12-26T02:16:45.225Z,1014.2
2016-12-26T02:17:45.208Z,1014.22
2016-12-26T02:18:45.194Z,1014.14
2016-12-26T02:19:45.178Z,1014.26
2016-12-26T02:20:45.165Z,1014.15
2016-12-26T02:21:45.145Z,1014.18
2016-12-26T02:22:45.131Z,1014.22
2016-12-26T02:23:45.115Z,1014.16
2016-12-26T02:24:45.099Z,1014.14
2016-12-26T02:25:45.084Z,1014.1
2016-12-26T02:26:45.067Z,1014.03
2016-12-26T02:27:45.053Z,1014.11
2016-12-26T02:28:45.036Z,1014.07
2016-12-26T02:29:45.021Z,1014.01
2016-12-26T02:30:45.005Z,1014.07
2016-12-26T02:31:44.990Z,1014
2016-12-26T02:32:44.978Z,1014.04
2016-12-26T02:33:44.961Z,1014.02
2016-12-26T02:34:44.941Z,1014.02
2016-12-26T02:35:44.926Z,1014.08
2016-12-26T02:36:44.909Z,1014.1
2016-12-26T02:37:44.895Z,1014.14
2016-12-26T02:38:44.878Z,1014.08
2016-12-26T02:39:44.865Z,1014.19
2016-12-26T02:40:44.847Z,1014.17
2016-12-26T02:41:44.831Z,1014.2
2016-12-26T02:42:44.816Z,1014.1
2016-12-26T02:43:44.799Z,1014.13
2016-12-26T02:44:44.784Z,1014.15
2016-12-26T02:45:44.769Z,1014.1
2016-12-26T02:46:44.752Z,1014.1
2016-12-26T02:47:44.735Z,1014.06
2016-12-26T02:48:44.722Z,1014.12
2016-12-26T02:49:44.705Z,1014.12
2016-12-26T02:50:44.688Z,1014.18
2016-12-26T02:51:44.673Z,1014.16
2016-12-26T02:52:44.658Z,1014.13
2016-12-26T02:53:44.641Z,1014.13
2016-12-26T02:54:44.625Z,1014.11
2016-12-26T02:55:44.611Z,1014.04
2016-12-26T02:56:44.595Z,1014.01
2016-12-26T02:57:44.580Z,1014
2016-12-26T02:58:44.562Z,1013.97
2016-12-26T02:59:44.547Z,1013.98
2016-12-26T03:00:44.530Z,1014.07
2016-12-26T03:01:44.515Z,1013.96
2016-12-26T03:02:44.499Z,1013.95
2016-12-26T03:03:44.483Z,1013.94
2016-12-26T03:04:44.467Z,1013.88
2016-12-26T03:05:44.451Z,1013.82
2016-12-26T03:06:44.476Z,1013.94
2016-12-26T03:07:44.423Z,1013.84
2016-12-26T03:08:44.406Z,1013.89
2016-12-26T03:09:44.390Z,1013.68
2016-12-26T03:10:44.372Z,1013.66
2016-12-26T03:11:44.357Z,1013.68
2016-12-26T03:12:44.342Z,1013.67
2016-12-26T03:13:44.325Z,1013.82
2016-12-26T03:14:44.310Z,1013.82
2016-12-26T03:15:44.294Z,1013.72
2016-12-26T03:16:44.277Z,1013.69
2016-12-26T03:17:44.265Z,1013.69
2016-12-26T03:18:44.247Z,1013.72
2016-12-26T03:19:44.231Z,1013.67
2016-12-26T03:20:44.217Z,1013.76
2016-12-26T03:21:44.199Z,1013.73
2016-12-26T03:22:44.185Z,1013.66
2016-12-26T03:23:44.168Z,1013.7
2016-12-26T03:24:44.152Z,1013.69
2016-12-26T03:25:44.141Z,1013.68
2016-12-26T03:26:44.122Z,1013.7
2016-12-26T03:27:44.105Z,1013.69
2016-12-26T03:28:44.089Z,1013.66
2016-12-26T03:29:44.075Z,1013.7
2016-12-26T03:30:44.057Z,1013.7
2016-12-26T03:31:44.092Z,1013.65
2016-12-26T03:32:44.028Z,1013.74
2016-12-26T03:33:44.011Z,1013.67
2016-12-26T03:34:43.995Z,1013.75
2016-12-26T03:35:44.032Z,1013.7
2016-12-26T03:36:43.968Z,1013.73
2016-12-26T03:37:43.948Z,1013.72
2016-12-26T03:38:43.937Z,1013.69
2016-12-26T03:39:43.969Z,1013.62
2016-12-26T03:40:43.900Z,1013.58
2016-12-26T03:41:43.884Z,1013.67
2016-12-26T03:42:43.869Z,1013.57
2016-12-26T03:43:43.854Z,1013.66
2016-12-26T03:44:43.839Z,1013.62
2016-12-26T03:45:43.821Z,1013.54
2016-12-26T03:46:43.806Z,1013.59
2016-12-26T03:47:43.792Z,1013.55
2016-12-26T03:48:43.775Z,1013.53
2016-12-26T03:49:43.758Z,1013.66
2016-12-26T03:50:43.743Z,1013.62
2016-12-26T03:51:43.728Z,1013.61
2016-12-26T03:52:43.711Z,1013.56
2016-12-26T03:53:43.696Z,1013.65
2016-12-26T03:54:43.681Z,1013.47
2016-12-26T03:55:43.664Z,1013.51
2016-12-26T03:56:43.650Z,1013.63
2016-12-26T03:57:43.632Z,1013.61
2016-12-26T03:58:43.617Z,1013.59
2016-12-26T03:59:43.601Z,1013.57
2016-12-26T04:00:43.588Z,1013.53
2016-12-26T04:01:43.568Z,1013.52
2016-12-26T04:02:43.553Z,1013.46
2016-12-26T04:03:43.535Z,1013.52
2016-12-26T04:04:43.520Z,1013.5
2016-12-26T04:05:43.506Z,1013.52
2016-12-26T04:06:43.490Z,1013.5
2016-12-26T04:07:43.472Z,1013.52
2016-12-26T04:08:43.457Z,1013.56
2016-12-26T04:09:43.441Z,1013.5
2016-12-26T04:10:43.428Z,1013.51
2016-12-26T04:11:43.410Z,1013.43
2016-12-26T04:12:43.396Z,1013.49
2016-12-26T04:13:43.380Z,1013.46
2016-12-26T04:14:43.364Z,1013.61
2016-12-26T04:15:43.345Z,1013.65
2016-12-26T04:16:43.331Z,1013.55
2016-12-26T04:17:43.316Z,1013.59
2016-12-26T04:18:43.301Z,1013.54
2016-12-26T04:19:43.287Z,1013.57
2016-12-26T04:20:43.267Z,1013.56
2016-12-26T04:21:43.253Z,1013.52
2016-12-26T04:22:43.234Z,1013.44
2016-12-26T04:23:43.219Z,1013.56
2016-12-26T04:24:43.203Z,1013.4
2016-12-26T04:25:43.189Z,1013.4
2016-12-26T04:26:43.171Z,1013.42
2016-12-26T04:27:43.155Z,1013.44
2016-12-26T04:28:43.139Z,1013.34
2016-12-26T04:29:43.174Z,1013.38
2016-12-26T04:30:43.111Z,1013.4
2016-12-26T04:31:43.092Z,1013.37
2016-12-26T04:32:43.076Z,1013.35
2016-12-26T04:33:43.064Z,1013.39
2016-12-26T04:34:43.043Z,1013.38
2016-12-26T04:35:43.231Z,1013.48
2016-12-26T04:36:43.012Z,1013.44
2016-12-26T04:37:42.997Z,1013.45
2016-12-26T04:38:42.981Z,1013.4
2016-12-26T04:39:42.964Z,1013.29
2016-12-26T04:40:42.948Z,1013.37
2016-12-26T04:41:42.932Z,1013.39
2016-12-26T04:42:42.917Z,1013.31
2016-12-26T04:43:42.903Z,1013.4
2016-12-26T04:44:42.886Z,1013.39
2016-12-26T04:45:42.868Z,1013.42
2016-12-26T04:46:42.856Z,1013.35
2016-12-26T04:47:42.836Z,1013.34
2016-12-26T04:48:42.821Z,1013.4
2016-12-26T04:49:42.804Z,1013.35
2016-12-26T04:50:42.790Z,1013.39
2016-12-26T04:51:42.772Z,1013.41
2016-12-26T04:52:42.756Z,1013.44
2016-12-26T04:53:42.743Z,1013.37
2016-12-26T04:54:42.725Z,1013.3
2016-12-26T04:55:42.711Z,1013.37
2016-12-26T04:56:42.692Z,1013.43
2016-12-26T04:57:42.680Z,1013.34
2016-12-26T04:58:42.660Z,1013.35
2016-12-26T04:59:42.746Z,1013.32
2016-12-26T05:00:42.631Z,1013.28
2016-12-26T05:01:42.615Z,1013.38
2016-12-26T05:02:42.598Z,1013.4
2016-12-26T05:03:42.581Z,1013.28
2016-12-26T05:04:42.567Z,1013.32
2016-12-26T05:05:42.550Z,1013.41
2016-12-26T05:06:42.535Z,1013.23
2016-12-26T05:07:42.519Z,1013.25
2016-12-26T05:08:42.504Z,1013.28
2016-12-26T05:09:42.486Z,1013.39
2016-12-26T05:10:42.469Z,1013.3
2016-12-26T05:11:42.453Z,1013.28
2016-12-26T05:12:42.439Z,1013.36
2016-12-26T05:13:42.422Z,1013.3
2016-12-26T05:14:42.406Z,1013.33
2016-12-26T05:15:42.391Z,1013.27
2016-12-26T05:16:42.373Z,1013.35
2016-12-26T05:17:42.358Z,1013.35
2016-12-26T05:18:42.341Z,1013.32
2016-12-26T05:19:42.326Z,1013.3
2016-12-26T05:20:42.308Z,1013.29
2016-12-26T05:21:42.293Z,1013.29
2016-12-26T05:22:42.278Z,1013.37
2016-12-26T05:23:42.261Z,1013.34
2016-12-26T05:24:42.245Z,1013.41
2016-12-26T05:25:42.229Z,1013.44
2016-12-26T05:26:42.213Z,1013.29
2016-12-26T05:27:42.196Z,1013.33
2016-12-26T05:28:42.182Z,1013.33
2016-12-26T05:29:42.166Z,1013.21
2016-12-26T05:30:42.152Z,1013.27
2016-12-26T05:31:42.133Z,1013.31
2016-12-26T05:32:42.119Z,1013.23
2016-12-26T05:33:42.101Z,1013.26
2016-12-26T05:34:42.088Z,1013.2
2016-12-26T05:35:42.068Z,1013.27
2016-12-26T05:36:42.054Z,1013.23
2016-12-26T05:37:42.037Z,1013.26
2016-12-26T05:38:42.020Z,1013.24
2016-12-26T05:39:42.007Z,1013.13
2016-12-26T05:40:41.993Z,1013.16
2016-12-26T05:41:41.973Z,1013.21
2016-12-26T05:42:41.957Z,1013.13
2016-12-26T05:43:41.942Z,1013.11
2016-12-26T05:44:41.926Z,1013.14
2016-12-26T05:45:41.909Z,1013.12
2016-12-26T05:46:41.893Z,1013.13
2016-12-26T05:47:41.881Z,1013.12
2016-12-26T05:48:41.866Z,1013.14
2016-12-26T05:49:41.845Z,1013.18
2016-12-26T05:50:41.829Z,1013.14
2016-12-26T05:51:41.815Z,1013.14
2016-12-26T05:52:41.846Z,1013.16
2016-12-26T05:53:41.781Z,1013.14
2016-12-26T05:54:41.767Z,1013.2
2016-12-26T05:55:41.750Z,1013.15
2016-12-26T05:56:41.733Z,1013.17
2016-12-26T05:57:41.717Z,1013.13
2016-12-26T05:58:41.700Z,1013.13
2016-12-26T05:59:41.686Z,1013.16
2016-12-26T06:00:41.668Z,1013.09
2016-12-26T06:01:41.653Z,1013.2
2016-12-26T06:02:41.639Z,1013.17
2016-12-26T06:03:41.623Z,1013.14
2016-12-26T06:04:41.603Z,1013.15
2016-12-26T06:05:41.589Z,1013.13
2016-12-26T06:06:41.573Z,1013.22
2016-12-26T06:07:41.557Z,1013.13
2016-12-26T06:08:41.541Z,1013.1
2016-12-26T06:09:41.523Z,1013.23
2016-12-26T06:10:41.509Z,1013.21
2016-12-26T06:11:41.491Z,1013.17
2016-12-26T06:12:41.475Z,1013.17
2016-12-26T06:13:41.467Z,1013.18
2016-12-26T06:14:41.447Z,1013.13
2016-12-26T06:15:41.427Z,1013.24
2016-12-26T06:16:41.413Z,1013.1
2016-12-26T06:17:41.395Z,1013.18
2016-12-26T06:18:41.381Z,1013.19
2016-12-26T06:19:41.363Z,1013.23
2016-12-26T06:20:41.348Z,1013.13
2016-12-26T06:21:41.332Z,1013.2
2016-12-26T06:22:41.315Z,1013.24
2016-12-26T06:23:41.300Z,1013.16
2016-12-26T06:24:41.284Z,1013.23
2016-12-26T06:25:41.271Z,1013.2
2016-12-26T06:26:41.251Z,1013.18
2016-12-26T06:27:41.235Z,1013.28
2016-12-26T06:28:41.219Z,1013.27
2016-12-26T06:29:41.205Z,1013.32
2016-12-26T06:30:41.187Z,1013.29
2016-12-26T06:31:41.171Z,1013.3
2016-12-26T06:32:41.156Z,1013.24
2016-12-26T06:33:41.138Z,1013.21
2016-12-26T06:34:41.124Z,1013.23
2016-12-26T06:35:41.309Z,1013.26
2016-12-26T06:36:41.095Z,1013.28
2016-12-26T06:37:41.074Z,1013.25
2016-12-26T06:38:41.060Z,1013.3
2016-12-26T06:39:41.045Z,1013.21
2016-12-26T06:40:41.029Z,1013.29
2016-12-26T06:41:41.012Z,1013.27
2016-12-26T06:42:40.997Z,1013.29
2016-12-26T06:43:40.980Z,1013.2
2016-12-26T06:44:40.964Z,1013.26
2016-12-26T06:45:40.949Z,1013.21
2016-12-26T06:46:40.933Z,1013.17
2016-12-26T06:47:40.917Z,1013.12
2016-12-26T06:48:40.901Z,1013.25
2016-12-26T06:49:40.883Z,1013.25
2016-12-26T06:50:40.872Z,1013.28
2016-12-26T06:51:40.853Z,1013.23
2016-12-26T06:52:40.836Z,1013.22
2016-12-26T06:53:40.820Z,1013.21
2016-12-26T06:54:40.804Z,1013.27
2016-12-26T06:55:40.788Z,1013.2
2016-12-26T06:56:40.773Z,1013.18
2016-12-26T06:57:40.757Z,1013.11
2016-12-26T06:58:40.741Z,1013.13
2016-12-26T06:59:40.725Z,1013.13
2016-12-26T07:00:40.710Z,1013.15
2016-12-26T07:01:40.695Z,1013.16
2016-12-26T07:02:40.675Z,1013.12
2016-12-26T07:03:40.661Z,1013.11
2016-12-26T07:04:40.645Z,1013.12
2016-12-26T07:05:40.629Z,1013.08
2016-12-26T07:06:40.614Z,1013.02
2016-12-26T07:07:40.596Z,1013.03
2016-12-26T07:08:40.580Z,1013.02
2016-12-26T07:09:40.566Z,1013.1
2016-12-26T07:10:40.550Z,1013.13
2016-12-26T07:11:40.532Z,1013.14
2016-12-26T07:12:40.517Z,1013.07
2016-12-26T07:13:40.500Z,1012.98
2016-12-26T07:14:40.484Z,1013.07
2016-12-26T07:15:40.469Z,1013.07
2016-12-26T07:16:40.454Z,1013.03
2016-12-26T07:17:40.436Z,1013.01
2016-12-26T07:18:40.421Z,1013.05
2016-12-26T07:19:40.406Z,1013.08
2016-12-26T07:20:40.391Z,1013.05
2016-12-26T07:21:40.373Z,1013.08
2016-12-26T07:22:40.357Z,1013.12
2016-12-26T07:23:40.340Z,1013.18
2016-12-26T07:24:40.325Z,1013.06
2016-12-26T07:25:40.310Z,1013.06
2016-12-26T07:26:40.293Z,1013.12
2016-12-26T07:27:40.280Z,1013.02
2016-12-26T07:28:40.260Z,1013.14
2016-12-26T07:29:40.244Z,1012.98
2016-12-26T07:30:40.229Z,1013.08
2016-12-26T07:31:40.213Z,1012.98
2016-12-26T07:32:40.196Z,1013.07
2016-12-26T07:33:40.185Z,1013.04
2016-12-26T07:34:40.165Z,1013.05
2016-12-26T07:35:40.149Z,1013.05
2016-12-26T07:36:40.132Z,1013
2016-12-26T07:37:40.117Z,1013.02
2016-12-26T07:38:40.102Z,1013.02
2016-12-26T07:39:40.089Z,1013.03
2016-12-26T07:40:40.069Z,1012.94
2016-12-26T07:41:40.052Z,1013
2016-12-26T07:42:40.038Z,1013.02
2016-12-26T07:43:40.020Z,1013.07
2016-12-26T07:44:40.008Z,1013.1
2016-12-26T07:45:39.992Z,1013.05
2016-12-26T07:46:39.974Z,1013.1
2016-12-26T07:47:39.957Z,1013.09
2016-12-26T07:48:39.942Z,1013.04
2016-12-26T07:49:39.925Z,1013.12
2016-12-26T07:50:39.910Z,1013.15
2016-12-26T07:51:39.898Z,1013.18
2016-12-26T07:52:39.878Z,1013.18
2016-12-26T07:53:39.862Z,1013.18
2016-12-26T07:54:39.847Z,1013.15
2016-12-26T07:55:39.830Z,1013.17
2016-12-26T07:56:39.815Z,1013.24
2016-12-26T07:57:39.801Z,1013.19
2016-12-26T07:58:39.782Z,1013.2
2016-12-26T07:59:39.765Z,1013.26
2016-12-26T08:00:39.750Z,1013.19
2016-12-26T08:01:39.735Z,1013.14
2016-12-26T08:02:39.718Z,1013.23
2016-12-26T08:03:39.703Z,1013.17
2016-12-26T08:04:39.688Z,1013.11
2016-12-26T08:05:39.671Z,1013.17
2016-12-26T08:06:39.658Z,1013.24
2016-12-26T08:07:39.639Z,1013.15
2016-12-26T08:08:39.621Z,1013.12
2016-12-26T08:09:39.608Z,1013.17
2016-12-26T08:10:39.592Z,1013.15
2016-12-26T08:11:39.574Z,1013.16
2016-12-26T08:12:39.559Z,1013.17
2016-12-26T08:13:39.542Z,1013.16
2016-12-26T08:14:39.529Z,1013.13
2016-12-26T08:15:39.513Z,1013.23
2016-12-26T08:16:39.497Z,1013.25
2016-12-26T08:17:39.482Z,1013.29
2016-12-26T08:18:39.465Z,1013.24
2016-12-26T08:19:39.449Z,1013.27
2016-12-26T08:20:39.436Z,1013.26
2016-12-26T08:21:39.417Z,1013.26
2016-12-26T08:22:39.897Z,1013.33
2016-12-26T08:23:39.394Z,1013.3
2016-12-26T08:24:39.371Z,1013.33
2016-12-26T08:25:39.354Z,1013.37
2016-12-26T08:26:39.339Z,1013.34
2016-12-26T08:27:39.323Z,1013.36
2016-12-26T08:28:39.313Z,1013.37
2016-12-26T08:29:39.293Z,1013.34
2016-12-26T08:30:39.273Z,1013.43
2016-12-26T08:31:39.259Z,1013.48
2016-12-26T08:32:39.244Z,1013.55
2016-12-26T08:33:39.228Z,1013.53
2016-12-26T08:34:39.217Z,1013.59
2016-12-26T08:35:39.401Z,1013.69
2016-12-26T08:36:39.185Z,1013.66
2016-12-26T08:37:39.163Z,1013.66
2016-12-26T08:38:39.152Z,1013.83
2016-12-26T08:39:39.133Z,1014.22
2016-12-26T08:40:39.118Z,1014.5
2016-12-26T08:41:39.100Z,1014.73
2016-12-26T08:42:39.085Z,1014.67
2016-12-26T08:43:39.069Z,1014.66
2016-12-26T08:44:39.054Z,1014.66
2016-12-26T08:45:39.039Z,1014.7
2016-12-26T08:46:39.022Z,1014.82
2016-12-26T08:47:39.008Z,1014.8
2016-12-26T08:48:38.993Z,1014.83
2016-12-26T08:49:38.972Z,1014.93
2016-12-26T08:50:38.957Z,1014.9
2016-12-26T08:51:38.945Z,1014.92
2016-12-26T08:52:38.926Z,1014.98
2016-12-26T08:53:38.959Z,1014.99
2016-12-26T08:54:38.893Z,1015
2016-12-26T08:55:38.876Z,1015.01
2016-12-26T08:56:38.860Z,1015.03
2016-12-26T08:57:38.843Z,1014.95
2016-12-26T08:58:38.827Z,1014.99
2016-12-26T08:59:38.812Z,1015.03
2016-12-26T09:00:38.793Z,1015.01
2016-12-26T09:01:38.778Z,1015.04
2016-12-26T09:02:38.760Z,1015.08
2016-12-26T09:03:38.744Z,1015.02
2016-12-26T09:04:38.728Z,1015.07
2016-12-26T09:05:38.710Z,1015.06
2016-12-26T09:06:38.695Z,1015.01
2016-12-26T09:07:38.677Z,1015.14
2016-12-26T09:08:38.662Z,1015.17
2016-12-26T09:09:38.643Z,1015.24
2016-12-26T09:10:38.625Z,1015.29
2016-12-26T09:11:38.610Z,1015.29
2016-12-26T09:12:38.593Z,1015.43
2016-12-26T09:13:38.580Z,1015.5
2016-12-26T09:14:38.558Z,1015.68
2016-12-26T09:15:38.541Z,1015.68
2016-12-26T09:16:38.526Z,1015.64
2016-12-26T09:17:38.512Z,1015.6
2016-12-26T09:18:38.490Z,1015.68
2016-12-26T09:19:38.477Z,1015.8
2016-12-26T09:20:38.458Z,1015.85
2016-12-26T09:21:38.439Z,1015.82
2016-12-26T09:22:38.423Z,1015.87
2016-12-26T09:23:38.406Z,1015.95
2016-12-26T09:24:38.392Z,1015.92
2016-12-26T09:25:38.375Z,1015.97
2016-12-26T09:26:38.355Z,1016
2016-12-26T09:27:38.338Z,1016.01
2016-12-26T09:28:38.323Z,1016.17
2016-12-26T09:29:38.305Z,1016.28
2016-12-26T09:30:38.289Z,1016.22
2016-12-26T09:31:38.271Z,1016.31
2016-12-26T09:32:38.254Z,1016.32
2016-12-26T09:33:38.237Z,1016.34
2016-12-26T09:34:38.274Z,1016.34
2016-12-26T09:35:38.202Z,1016.36
2016-12-26T09:36:38.183Z,1016.27
2016-12-26T09:37:38.169Z,1016.49
2016-12-26T09:38:38.153Z,1016.35
2016-12-26T09:39:38.134Z,1016.27
2016-12-26T09:40:38.117Z,1016.42
2016-12-26T09:41:38.099Z,1016.32
2016-12-26T09:42:38.080Z,1016.51
2016-12-26T09:43:38.062Z,1016.44
2016-12-26T09:44:38.046Z,1016.48
2016-12-26T09:45:38.028Z,1016.53
2016-12-26T09:46:38.011Z,1016.54
2016-12-26T09:47:37.992Z,1016.48
2016-12-26T09:48:37.975Z,1016.56
2016-12-26T09:49:37.957Z,1016.49
2016-12-26T09:50:37.942Z,1016.42
2016-12-26T09:51:37.925Z,1016.5
2016-12-26T09:52:37.908Z,1016.49
2016-12-26T09:53:37.889Z,1016.63
2016-12-26T09:54:37.870Z,1016.58
2016-12-26T09:55:37.854Z,1016.66
2016-12-26T09:56:37.836Z,1016.61
2016-12-26T09:57:37.817Z,1016.74
2016-12-26T09:58:37.799Z,1016.67
2016-12-26T09:59:37.783Z,1016.75
2016-12-26T10:00:37.767Z,1016.82
2016-12-26T10:01:37.826Z,1016.79
2016-12-26T10:02:37.727Z,1016.74
2016-12-26T10:03:37.711Z,1016.8
2016-12-26T10:04:37.694Z,1016.75
2016-12-26T10:05:37.673Z,1016.74
2016-12-26T10:06:37.656Z,1016.78
2016-12-26T10:07:37.639Z,1016.83
2016-12-26T10:08:37.619Z,1016.72
2016-12-26T10:09:37.602Z,1016.79
2016-12-26T10:10:37.584Z,1016.79
2016-12-26T10:11:37.569Z,1016.79
2016-12-26T10:12:37.548Z,1016.83
2016-12-26T10:13:37.531Z,1016.79
2016-12-26T10:14:37.513Z,1016.81
2016-12-26T10:15:37.494Z,1016.89
2016-12-26T10:16:37.479Z,1016.99
2016-12-26T10:17:37.458Z,1016.94
2016-12-26T10:18:37.441Z,1016.94
2016-12-26T10:19:37.426Z,1017.23
2016-12-26T10:20:37.403Z,1016.92
2016-12-26T10:21:37.385Z,1017.06
2016-12-26T10:22:37.368Z,1017.06
2016-12-26T10:23:37.350Z,1016.93
2016-12-26T10:24:37.333Z,1016.9
2016-12-26T10:25:37.314Z,1016.94
2016-12-26T10:26:37.298Z,1016.91
2016-12-26T10:27:37.279Z,1017.03
2016-12-26T10:28:37.259Z,1016.77
2016-12-26T10:29:37.241Z,1016.82
2016-12-26T10:30:37.223Z,1016.88
2016-12-26T10:31:37.204Z,1016.97
2016-12-26T10:32:37.186Z,1016.86
2016-12-26T10:33:37.171Z,1016.8
2016-12-26T10:34:37.151Z,1016.77
2016-12-26T10:35:37.334Z,1016.8
2016-12-26T10:36:37.114Z,1016.88
2016-12-26T10:37:37.098Z,1016.87
2016-12-26T10:38:37.076Z,1016.76
2016-12-26T10:39:37.060Z,1016.79
2016-12-26T10:40:37.043Z,1016.72
2016-12-26T10:41:37.022Z,1016.61
2016-12-26T10:42:37.007Z,1016.71
2016-12-26T10:43:36.986Z,1016.66
2016-12-26T10:44:36.969Z,1016.76
2016-12-26T10:45:36.948Z,1016.85
2016-12-26T10:46:36.931Z,1016.84
2016-12-26T10:47:36.912Z,1016.85
2016-12-26T10:48:36.894Z,1016.92
2016-12-26T10:49:36.875Z,1016.95
2016-12-26T10:50:36.858Z,1016.91
2016-12-26T10:51:36.840Z,1016.97
2016-12-26T10:52:36.821Z,1017
2016-12-26T10:53:36.808Z,1017.05
2016-12-26T10:54:36.784Z,1017.1
2016-12-26T10:55:36.765Z,1017.12
2016-12-26T10:56:36.751Z,1017.13
2016-12-26T10:57:36.730Z,1017.15
2016-12-26T10:58:36.712Z,1017.19
2016-12-26T10:59:36.703Z,1017.14
2016-12-26T11:00:36.677Z,1017.13
2016-12-26T11:01:36.662Z,1017.15
2016-12-26T11:02:36.641Z,1017.09
2016-12-26T11:03:36.623Z,1017.09
2016-12-26T11:04:36.604Z,1017.04
2016-12-26T11:05:36.587Z,1017.07
2016-12-26T11:06:36.568Z,1017.08
2016-12-26T11:07:36.556Z,1017.06
2016-12-26T11:08:36.535Z,1016.97
2016-12-26T11:09:36.515Z,1017.04
2016-12-26T11:10:36.502Z,1017.05
2016-12-26T11:11:36.480Z,1017.04
2016-12-26T11:12:36.462Z,1017.08
2016-12-26T11:13:36.444Z,1017.15
2016-12-26T11:14:36.428Z,1017.12
2016-12-26T11:15:36.413Z,1017.1
2016-12-26T11:16:36.393Z,1017.15
2016-12-26T11:17:36.376Z,1017.16
2016-12-26T11:18:36.357Z,1017.23
2016-12-26T11:19:36.339Z,1017.12
2016-12-26T11:20:36.321Z,1017.14
2016-12-26T11:21:36.305Z,1017.13
2016-12-26T11:22:36.287Z,1017.14
2016-12-26T11:23:36.269Z,1017.14
2016-12-26T11:24:36.253Z,1017.05
2016-12-26T11:25:36.235Z,1017.08
2016-12-26T11:26:36.218Z,1017.15
2016-12-26T11:27:36.201Z,1017.2
2016-12-26T11:28:36.186Z,1017.12
2016-12-26T11:29:36.166Z,1017.17
2016-12-26T11:30:36.149Z,1017.2
2016-12-26T11:31:36.134Z,1017.17
2016-12-26T11:32:36.119Z,1017.24
2016-12-26T11:33:36.099Z,1017.16
2016-12-26T11:34:36.081Z,1017.24
2016-12-26T11:35:36.066Z,1017.34
2016-12-26T11:36:36.047Z,1017.28
2016-12-26T11:37:36.030Z,1017.29
2016-12-26T11:38:36.012Z,1017.3
2016-12-26T11:39:35.996Z,1017.25
2016-12-26T11:40:35.977Z,1017.28
2016-12-26T11:41:35.960Z,1017.26
2016-12-26T11:42:35.945Z,1017.24
2016-12-26T11:43:35.927Z,1017.24
2016-12-26T11:44:35.907Z,1017.26
2016-12-26T11:45:35.891Z,1017.29
2016-12-26T11:46:35.873Z,1017.24
2016-12-26T11:47:35.855Z,1017.21
2016-12-26T11:48:35.839Z,1017.26
2016-12-26T11:49:35.824Z,1017.29
2016-12-26T11:50:35.807Z,1017.32
2016-12-26T11:51:35.787Z,1017.26
2016-12-26T11:52:35.773Z,1017.29
2016-12-26T11:53:35.755Z,1017.2
2016-12-26T11:54:35.737Z,1017.23
2016-12-26T11:55:35.719Z,1017.27
2016-12-26T11:56:35.704Z,1017.32
2016-12-26T11:57:35.690Z,1017.3
2016-12-26T11:58:35.669Z,1017.29
2016-12-26T11:59:35.656Z,1017.33
2016-12-26T12:00:35.638Z,1017.25
2016-12-26T12:01:35.620Z,1017.25
2016-12-26T12:02:35.604Z,1017.31
2016-12-26T12:03:35.585Z,1017.25
2016-12-26T12:04:35.570Z,1017.16
2016-12-26T12:05:35.554Z,1017.25
2016-12-26T12:06:35.541Z,1017.16
2016-12-26T12:07:35.521Z,1017.23
2016-12-26T12:08:35.503Z,1017.2